createdAt,value
2022-10-05T00:00:47.601Z,11.61
2022-10-05T00:01:47.668Z,11.61
2022-10-05T00:02:47.570Z,11.60
2022-10-05T00:03:47.595Z,11.61
2022-10-05T00:04:47.645Z,11.61
2022-10-05T00:05:47.545Z,11.64
2022-10-05T00:06:47.834Z,11.62
2022-10-05T00:07:47.512Z,11.64
2022-10-05T00:08:47.501Z,11.65
2022-10-05T00:09:47.498Z,11.67
2022-10-05T00:10:47.503Z,11.67
2022-10-05T00:11:47.489Z,11.69
2022-10-05T00:12:47.452Z,11.65
2022-10-05T00:13:47.446Z,11.69
2022-10-05T00:14:47.438Z,11.69
2022-10-05T00:15:47.464Z,11.76
2022-10-05T00:16:47.741Z,11.79
2022-10-05T00:17:47.387Z,11.83
2022-10-05T00:18:47.375Z,11.88
2022-10-05T00:19:47.365Z,11.91
2022-10-05T00:20:47.355Z,11.91
2022-10-05T00:21:47.352Z,11.95
2022-10-05T00:22:47.328Z,11.98
2022-10-05T00:23:47.375Z,11.99
2022-10-05T00:24:47.316Z,12.02
2022-10-05T00:25:47.302Z,12.07
2022-10-05T00:26:47.479Z,12.10
2022-10-05T00:27:47.264Z,12.12
2022-10-05T00:28:47.255Z,12.13
2022-10-05T00:29:47.256Z,12.16
2022-10-05T00:30:47.215Z,12.17
2022-10-05T00:31:47.303Z,12.20
2022-10-05T00:32:47.203Z,12.21
2022-10-05T00:33:47.174Z,12.23
2022-10-05T00:34:47.218Z,12.23
2022-10-05T00:35:47.157Z,12.21
2022-10-05T00:36:47.456Z,12.28
2022-10-05T00:37:47.137Z,12.28
2022-10-05T00:38:47.139Z,12.29
2022-10-05T00:39:47.133Z,12.29
2022-10-05T00:40:47.097Z,12.29
2022-10-05T00:41:47.070Z,12.32
2022-10-05T00:42:47.063Z,12.32
2022-10-05T00:43:47.052Z,12.32
2022-10-05T00:44:47.061Z,12.34
2022-10-05T00:45:47.072Z,12.35
2022-10-05T00:46:47.351Z,12.37
2022-10-05T00:47:46.999Z,12.38
2022-10-05T00:48:46.987Z,12.39
2022-10-05T00:49:46.960Z,12.41
2022-10-05T00:50:46.974Z,12.41
2022-10-05T00:51:46.949Z,12.47
2022-10-05T00:52:46.940Z,12.49
2022-10-05T00:53:46.910Z,12.50
2022-10-05T00:54:46.899Z,12.50
2022-10-05T00:55:46.910Z,12.52
2022-10-05T00:56:47.169Z,12.52
2022-10-05T00:57:46.868Z,12.52
2022-10-05T00:58:46.888Z,12.52
2022-10-05T00:59:46.843Z,12.52
2022-10-05T01:00:46.942Z,12.52
2022-10-05T01:01:46.815Z,12.52
2022-10-05T01:02:46.895Z,12.53
2022-10-05T01:03:46.787Z,12.52
2022-10-05T01:04:46.776Z,12.50
2022-10-05T01:05:46.787Z,12.52
2022-10-05T01:06:47.068Z,12.50
2022-10-05T01:07:46.740Z,12.49
2022-10-05T01:08:46.718Z,12.50
2022-10-05T01:09:46.707Z,12.49
2022-10-05T01:10:46.720Z,12.49
2022-10-05T01:11:46.677Z,12.52
2022-10-05T01:12:46.673Z,12.53
2022-10-05T01:13:46.659Z,12.53
2022-10-05T01:14:46.647Z,12.53
2022-10-05T01:15:46.649Z,12.53
2022-10-05T01:16:46.884Z,12.52
2022-10-05T01:17:46.613Z,12.54
2022-10-05T01:18:46.595Z,12.54
2022-10-05T01:19:46.597Z,12.56
2022-10-05T01:20:46.595Z,12.53
2022-10-05T01:21:46.546Z,12.54
2022-10-05T01:22:46.547Z,12.54
2022-10-05T01:23:46.537Z,12.54
2022-10-05T01:24:46.511Z,12.54
2022-10-05T01:25:46.512Z,12.52
2022-10-05T01:26:46.889Z,12.54
2022-10-05T01:27:46.474Z,12.54
2022-10-05T01:28:46.454Z,12.56
2022-10-05T01:29:46.452Z,12.56
2022-10-05T01:30:46.454Z,12.57
2022-10-05T01:31:46.495Z,12.56
2022-10-05T01:32:46.415Z,12.57
2022-10-05T01:33:46.394Z,12.57
2022-10-05T01:34:46.377Z,12.59
2022-10-05T01:35:46.395Z,12.59
2022-10-05T01:36:46.503Z,12.62
2022-10-05T01:37:46.351Z,12.60
2022-10-05T01:38:46.322Z,12.59
2022-10-05T01:39:46.322Z,12.62
2022-10-05T01:40:46.310Z,12.59
2022-10-05T01:41:46.300Z,12.60
2022-10-05T01:42:46.294Z,12.64
2022-10-05T01:43:46.271Z,12.68
2022-10-05T01:44:46.275Z,12.70
2022-10-05T01:45:46.282Z,12.70
2022-10-05T01:46:46.550Z,12.71
2022-10-05T01:47:46.215Z,12.68
2022-10-05T01:48:46.210Z,12.70
2022-10-05T01:49:46.190Z,12.71
2022-10-05T01:50:46.240Z,12.72
2022-10-05T01:51:46.169Z,12.68
2022-10-05T01:52:46.149Z,12.71
2022-10-05T01:53:46.129Z,12.70
2022-10-05T01:54:46.122Z,12.70
2022-10-05T01:55:46.139Z,12.70
2022-10-05T01:56:46.384Z,12.70
2022-10-05T01:57:46.117Z,12.72
2022-10-05T01:58:46.058Z,12.75
2022-10-05T01:59:46.079Z,12.77
2022-10-05T02:00:46.146Z,12.77
2022-10-05T02:01:46.129Z,12.77
2022-10-05T02:02:46.038Z,12.74
2022-10-05T02:03:46.068Z,12.72
2022-10-05T02:05:02.534Z,12.71
2022-10-05T02:05:46.997Z,12.70
2022-10-05T02:06:46.269Z,12.68
2022-10-05T02:07:45.962Z,12.67
2022-10-05T02:08:45.969Z,12.64
2022-10-05T02:09:45.937Z,12.64
2022-10-05T02:10:45.927Z,12.62
2022-10-05T02:11:45.905Z,12.62
2022-10-05T02:12:45.927Z,12.60
2022-10-05T02:13:45.884Z,12.57
2022-10-05T02:14:45.915Z,12.57
2022-10-05T02:15:45.899Z,12.54
2022-10-05T02:16:46.095Z,12.54
2022-10-05T02:17:45.826Z,12.53
2022-10-05T02:18:45.834Z,12.52
2022-10-05T02:19:45.795Z,12.52
2022-10-05T02:20:45.785Z,12.52
2022-10-05T02:21:45.776Z,12.52
2022-10-05T02:22:45.758Z,12.52
2022-10-05T02:23:45.753Z,12.52
2022-10-05T02:24:45.754Z,12.53
2022-10-05T02:25:45.730Z,12.53
2022-10-05T02:26:45.930Z,12.53
2022-10-05T02:27:45.705Z,12.50
2022-10-05T02:28:45.693Z,12.53
2022-10-05T02:29:45.694Z,12.54
2022-10-05T02:30:45.674Z,12.54
2022-10-05T02:31:45.723Z,12.56
2022-10-05T02:32:45.622Z,12.60
2022-10-05T02:33:45.616Z,12.62
2022-10-05T02:34:45.601Z,12.62
2022-10-05T02:35:45.612Z,12.62
2022-10-05T02:36:45.763Z,12.62
2022-10-05T02:37:45.571Z,12.64
2022-10-05T02:38:45.554Z,12.64
2022-10-05T02:39:45.531Z,12.65
2022-10-05T02:40:45.542Z,12.67
2022-10-05T02:41:45.521Z,12.68
2022-10-05T02:42:45.508Z,12.68
2022-10-05T02:43:45.535Z,12.67
2022-10-05T02:44:45.470Z,12.68
2022-10-05T02:45:45.560Z,12.67
2022-10-05T02:46:45.711Z,12.65
2022-10-05T02:47:45.434Z,12.67
2022-10-05T02:48:45.428Z,12.67
2022-10-05T02:49:45.405Z,12.67
2022-10-05T02:50:45.406Z,12.65
2022-10-05T02:51:45.389Z,12.65
2022-10-05T02:52:45.370Z,12.68
2022-10-05T02:53:45.371Z,12.70
2022-10-05T02:54:45.338Z,12.68
2022-10-05T02:55:45.340Z,12.70
2022-10-05T02:56:45.584Z,12.70
2022-10-05T02:57:45.310Z,12.71
2022-10-05T02:58:45.288Z,12.71
2022-10-05T02:59:45.282Z,12.71
2022-10-05T03:00:45.286Z,12.70
2022-10-05T03:01:45.301Z,12.71
2022-10-05T03:02:45.230Z,12.70
2022-10-05T03:03:45.228Z,12.70
2022-10-05T03:04:45.209Z,12.71
2022-10-05T03:05:45.272Z,12.71
2022-10-05T03:06:45.450Z,12.71
2022-10-05T03:07:45.229Z,12.72
2022-10-05T03:08:45.159Z,12.72
2022-10-05T03:09:45.148Z,12.72
2022-10-05T03:10:45.140Z,12.75
2022-10-05T03:11:45.122Z,12.74
2022-10-05T03:12:45.147Z,12.75
2022-10-05T03:13:45.117Z,12.77
2022-10-05T03:14:45.091Z,12.77
2022-10-05T03:15:45.145Z,12.78
2022-10-05T03:16:45.274Z,12.78
2022-10-05T03:17:45.046Z,12.78
2022-10-05T03:18:45.057Z,12.78
2022-10-05T03:19:45.018Z,12.77
2022-10-05T03:20:45.015Z,12.77
2022-10-05T03:21:44.989Z,12.75
2022-10-05T03:22:44.988Z,12.75
2022-10-05T03:23:44.992Z,12.74
2022-10-05T03:24:44.955Z,12.74
2022-10-05T03:25:44.999Z,12.72
2022-10-05T03:26:45.211Z,12.71
2022-10-05T03:27:44.913Z,12.72
2022-10-05T03:28:44.902Z,12.71
2022-10-05T03:29:44.875Z,12.70
2022-10-05T03:30:44.924Z,12.68
2022-10-05T03:31:44.883Z,12.68
2022-10-05T03:32:44.853Z,12.68
2022-10-05T03:33:44.833Z,12.67
2022-10-05T03:34:44.823Z,12.68
2022-10-05T03:35:44.853Z,12.70
2022-10-05T03:36:44.986Z,12.72
2022-10-05T03:37:44.813Z,12.72
2022-10-05T03:38:44.779Z,12.74
2022-10-05T03:39:44.753Z,12.74
2022-10-05T03:40:44.783Z,12.74
2022-10-05T03:41:44.743Z,12.71
2022-10-05T03:42:44.712Z,12.71
2022-10-05T03:43:44.732Z,12.72
2022-10-05T03:44:44.685Z,12.74
2022-10-05T03:45:44.693Z,12.75
2022-10-05T03:46:45.045Z,12.75
2022-10-05T03:47:44.650Z,12.77
2022-10-05T03:48:44.635Z,12.75
2022-10-05T03:49:44.622Z,12.75
2022-10-05T03:50:44.621Z,12.77
2022-10-05T03:51:44.603Z,12.78
2022-10-05T03:52:44.631Z,12.79
2022-10-05T03:53:44.570Z,12.82
2022-10-05T03:54:44.572Z,12.83
2022-10-05T03:55:44.560Z,12.82
2022-10-05T03:56:44.881Z,12.83
2022-10-05T03:57:44.540Z,12.82
2022-10-05T03:58:44.530Z,12.83
2022-10-05T03:59:44.499Z,12.83
2022-10-05T04:00:44.504Z,12.82
2022-10-05T04:01:44.560Z,12.82
2022-10-05T04:02:44.573Z,12.82
2022-10-05T04:03:44.450Z,12.79
2022-10-05T04:04:44.449Z,12.78
2022-10-05T04:05:44.427Z,12.79
2022-10-05T04:06:44.785Z,12.79
2022-10-05T04:07:44.402Z,12.78
2022-10-05T04:08:47.777Z,12.78
2022-10-05T04:09:44.362Z,12.79
2022-10-05T04:10:44.407Z,12.77
2022-10-05T04:11:44.334Z,12.77
2022-10-05T04:12:44.336Z,12.77
2022-10-05T04:13:44.308Z,12.77
2022-10-05T04:14:44.301Z,12.75
2022-10-05T04:15:44.337Z,12.75
2022-10-05T04:16:44.604Z,12.75
2022-10-05T04:17:44.258Z,12.72
2022-10-05T04:18:44.254Z,12.70
2022-10-05T04:19:44.237Z,12.68
2022-10-05T04:20:44.236Z,12.68
2022-10-05T04:21:44.207Z,12.67
2022-10-05T04:22:44.246Z,12.65
2022-10-05T04:23:44.176Z,12.65
2022-10-05T04:24:44.205Z,12.65
2022-10-05T04:25:44.166Z,12.64
2022-10-05T04:26:44.573Z,12.62
2022-10-05T04:27:44.135Z,12.60
2022-10-05T04:28:44.158Z,12.60
2022-10-05T04:29:44.106Z,12.60
2022-10-05T04:30:44.104Z,12.59
2022-10-05T04:31:44.121Z,12.57
2022-10-05T04:32:44.085Z,12.57
2022-10-05T04:33:44.055Z,12.57
2022-10-05T04:34:44.075Z,12.59
2022-10-05T04:35:44.053Z,12.60
2022-10-05T04:36:44.298Z,12.62
2022-10-05T04:37:46.509Z,12.64
2022-10-05T04:38:43.994Z,12.62
2022-10-05T04:39:43.985Z,12.65
2022-10-05T04:40:43.990Z,12.64
2022-10-05T04:41:43.972Z,12.65
2022-10-05T04:42:43.932Z,12.65
2022-10-05T04:43:43.927Z,12.64
2022-10-05T04:44:43.932Z,12.64
2022-10-05T04:45:43.944Z,12.62
2022-10-05T04:46:44.101Z,12.64
2022-10-05T04:47:43.903Z,12.62
2022-10-05T04:48:43.882Z,12.64
2022-10-05T04:49:43.860Z,12.65
2022-10-05T04:50:43.874Z,12.67
2022-10-05T04:51:47.672Z,12.70
2022-10-05T04:52:44.822Z,12.68
2022-10-05T04:53:43.791Z,12.70
2022-10-05T04:54:43.799Z,12.70
2022-10-05T04:55:43.781Z,12.68
2022-10-05T04:56:43.865Z,12.68
2022-10-05T04:57:43.742Z,12.70
2022-10-05T04:58:43.740Z,12.72
2022-10-05T04:59:43.778Z,12.71
2022-10-05T05:00:43.782Z,12.71
2022-10-05T05:01:43.691Z,12.72
2022-10-05T05:02:43.681Z,12.74
2022-10-05T05:03:43.777Z,12.77
2022-10-05T05:04:46.200Z,12.78
2022-10-05T05:06:04.992Z,12.79
2022-10-05T05:06:44.921Z,12.83
2022-10-05T05:07:43.616Z,12.83
2022-10-05T05:08:43.631Z,12.83
2022-10-05T05:09:43.619Z,12.85
2022-10-05T05:10:43.624Z,12.85
2022-10-05T05:11:43.596Z,12.87
2022-10-05T05:12:43.580Z,12.86
2022-10-05T05:13:43.546Z,12.86
2022-10-05T05:14:43.522Z,12.87
2022-10-05T05:15:43.575Z,12.85
2022-10-05T05:16:43.715Z,12.85
2022-10-05T05:17:43.519Z,12.85
2022-10-05T05:18:43.478Z,12.83
2022-10-05T05:19:43.466Z,12.83
2022-10-05T05:20:43.458Z,12.85
2022-10-05T05:21:43.439Z,12.82
2022-10-05T05:22:43.431Z,12.82
2022-10-05T05:23:43.479Z,12.82
2022-10-05T05:24:43.403Z,12.82
2022-10-05T05:25:43.428Z,12.85
2022-10-05T05:26:43.374Z,12.83
2022-10-05T05:27:43.366Z,12.86
2022-10-05T05:28:43.351Z,12.87
2022-10-05T05:29:43.355Z,12.92
2022-10-05T05:30:43.353Z,12.90
2022-10-05T05:31:43.387Z,12.93
2022-10-05T05:32:43.312Z,12.92
2022-10-05T05:33:43.296Z,12.92
2022-10-05T05:34:43.273Z,12.92
2022-10-05T05:35:43.275Z,12.93
2022-10-05T05:36:43.388Z,12.92
2022-10-05T05:37:43.234Z,12.96
2022-10-05T05:38:43.237Z,12.97
2022-10-05T05:39:43.218Z,13.00
2022-10-05T05:40:43.205Z,12.97
2022-10-05T05:41:43.194Z,13.00
2022-10-05T05:42:43.195Z,13.00
2022-10-05T05:43:43.162Z,13.01
2022-10-05T05:44:43.133Z,13.04
2022-10-05T05:45:43.163Z,13.04
2022-10-05T05:47:02.803Z,13.04
2022-10-05T05:47:44.134Z,13.03
2022-10-05T05:48:43.094Z,13.04
2022-10-05T05:49:43.099Z,13.04
2022-10-05T05:50:43.075Z,13.04
2022-10-05T05:51:43.053Z,13.07
2022-10-05T05:52:43.043Z,13.07
2022-10-05T05:53:43.051Z,13.08
2022-10-05T05:54:43.014Z,13.10
2022-10-05T05:55:43.013Z,13.11
2022-10-05T05:56:43.153Z,13.10
2022-10-05T05:57:42.984Z,13.11
2022-10-05T05:58:42.990Z,13.14
2022-10-05T05:59:42.940Z,13.12
2022-10-05T06:00:42.950Z,13.12
2022-10-05T06:01:44.636Z,13.12
2022-10-05T06:02:42.970Z,13.15
2022-10-05T06:03:42.900Z,13.17
2022-10-05T06:04:42.880Z,13.20
2022-10-05T06:05:42.880Z,13.20
2022-10-05T06:06:42.883Z,13.20
2022-10-05T06:07:42.847Z,13.22
2022-10-05T06:08:42.878Z,13.25
2022-10-05T06:09:42.819Z,13.26
2022-10-05T06:10:42.816Z,13.28
2022-10-05T06:11:42.800Z,13.29
2022-10-05T06:12:42.778Z,13.30
2022-10-05T06:13:42.769Z,13.33
2022-10-05T06:14:42.770Z,13.36
2022-10-05T06:15:42.749Z,13.36
2022-10-05T06:16:42.779Z,13.36
2022-10-05T06:17:42.708Z,13.38
2022-10-05T06:18:42.707Z,13.38
2022-10-05T06:19:42.690Z,13.39
2022-10-05T06:20:42.689Z,13.41
2022-10-05T06:21:42.658Z,13.42
2022-10-05T06:22:42.647Z,13.45
2022-10-05T06:23:42.638Z,13.45
2022-10-05T06:24:42.627Z,13.45
2022-10-05T06:25:42.627Z,13.48
2022-10-05T06:26:42.627Z,13.51
2022-10-05T06:27:42.632Z,13.51
2022-10-05T06:28:42.638Z,13.54
2022-10-05T06:29:42.558Z,13.55
2022-10-05T06:30:42.558Z,13.59
2022-10-05T06:31:42.572Z,13.59
2022-10-05T06:32:42.524Z,13.62
2022-10-05T06:33:42.536Z,13.62
2022-10-05T06:34:42.497Z,13.64
2022-10-05T06:35:42.496Z,13.67
2022-10-05T06:36:42.467Z,13.69
2022-10-05T06:37:42.456Z,13.73
2022-10-05T06:38:42.475Z,13.75
2022-10-05T06:39:42.451Z,13.79
2022-10-05T06:40:42.477Z,13.82
2022-10-05T06:41:42.394Z,13.82
2022-10-05T06:42:42.404Z,13.82
2022-10-05T06:43:42.376Z,13.84
2022-10-05T06:44:42.373Z,13.84
2022-10-05T06:45:42.445Z,13.84
2022-10-05T06:46:42.343Z,13.84
2022-10-05T06:47:42.332Z,13.85
2022-10-05T06:48:42.320Z,13.87
2022-10-05T06:49:42.303Z,13.88
2022-10-05T06:50:42.323Z,13.88
2022-10-05T06:51:42.283Z,13.91
2022-10-05T06:52:42.283Z,13.95
2022-10-05T06:53:42.253Z,13.97
2022-10-05T06:54:42.251Z,14.00
2022-10-05T06:55:42.264Z,14.02
2022-10-05T06:56:42.223Z,14.04
2022-10-05T06:57:42.201Z,14.07
2022-10-05T06:58:42.201Z,14.10
2022-10-05T06:59:42.201Z,14.10
2022-10-05T07:00:42.436Z,14.14
2022-10-05T07:01:42.299Z,14.15
2022-10-05T07:02:42.171Z,14.17
2022-10-05T07:03:42.129Z,14.18
2022-10-05T07:04:42.120Z,14.21
2022-10-05T07:05:42.119Z,14.22
2022-10-05T07:06:42.099Z,14.25
2022-10-05T07:07:42.091Z,14.25
2022-10-05T07:08:42.062Z,14.25
2022-10-05T07:09:42.051Z,14.27
2022-10-05T07:10:42.060Z,14.29
2022-10-05T07:11:42.030Z,14.29
2022-10-05T07:12:42.018Z,14.32
2022-10-05T07:13:42.041Z,14.33
2022-10-05T07:14:42.018Z,14.35
2022-10-05T07:15:42.018Z,14.36
2022-10-05T07:16:42.028Z,14.37
2022-10-05T07:17:41.947Z,14.40
2022-10-05T07:18:41.940Z,14.39
2022-10-05T07:19:41.958Z,14.40
2022-10-05T07:20:44.537Z,14.42
2022-10-05T07:21:42.910Z,14.45
2022-10-05T07:22:41.887Z,14.46
2022-10-05T07:23:41.877Z,14.47
2022-10-05T07:24:41.869Z,14.50
2022-10-05T07:25:41.857Z,14.50
2022-10-05T07:26:41.846Z,14.51
2022-10-05T07:27:41.826Z,14.52
2022-10-05T07:28:41.963Z,14.54
2022-10-05T07:29:41.796Z,14.55
2022-10-05T07:30:41.855Z,14.55
2022-10-05T07:31:41.792Z,14.55
2022-10-05T07:32:41.773Z,14.58
2022-10-05T07:33:41.750Z,14.58
2022-10-05T07:34:41.736Z,14.60
2022-10-05T07:35:41.750Z,14.60
2022-10-05T07:36:41.724Z,14.61
2022-10-05T07:37:41.712Z,14.62
2022-10-05T07:38:41.687Z,14.62
2022-10-05T07:39:59.481Z,14.65
2022-10-05T07:40:42.674Z,14.65
2022-10-05T07:41:41.665Z,14.65
2022-10-05T07:42:48.778Z,14.65
2022-10-05T07:44:00.996Z,14.68
2022-10-05T07:44:42.637Z,14.68
2022-10-05T07:45:41.675Z,14.69
2022-10-05T07:46:41.584Z,14.69
2022-10-05T07:47:41.572Z,14.65
2022-10-05T07:48:41.568Z,14.69
2022-10-05T07:49:41.553Z,14.68
2022-10-05T07:50:41.544Z,14.68
2022-10-05T07:51:41.523Z,14.68
2022-10-05T07:52:41.513Z,14.68
2022-10-05T07:53:41.521Z,14.69
2022-10-05T07:54:41.493Z,14.68
2022-10-05T07:55:41.522Z,14.69
2022-10-05T07:56:41.474Z,14.69
2022-10-05T07:57:41.453Z,14.70
2022-10-05T07:58:41.441Z,14.72
2022-10-05T07:59:41.423Z,14.73
2022-10-05T08:00:41.422Z,14.73
2022-10-05T08:01:41.474Z,14.75
2022-10-05T08:02:41.471Z,14.77
2022-10-05T08:03:41.362Z,14.78
2022-10-05T08:04:42.007Z,14.81
2022-10-05T08:05:41.391Z,14.80
2022-10-05T08:06:41.338Z,14.84
2022-10-05T08:07:41.320Z,14.84
2022-10-05T08:08:41.337Z,14.88
2022-10-05T08:09:41.293Z,14.89
2022-10-05T08:10:41.300Z,14.91
2022-10-05T08:11:41.268Z,14.92
2022-10-05T08:12:41.268Z,14.94
2022-10-05T08:13:41.269Z,14.94
2022-10-05T08:14:41.231Z,14.96
2022-10-05T08:15:41.307Z,14.96
2022-10-05T08:16:41.210Z,14.98
2022-10-05T08:17:41.190Z,15.01
2022-10-05T08:18:41.191Z,15.02
2022-10-05T08:19:41.196Z,15.03
2022-10-05T08:20:41.208Z,15.06
2022-10-05T08:21:41.149Z,15.07
2022-10-05T08:22:41.148Z,15.09
2022-10-05T08:23:41.119Z,15.10
2022-10-05T08:24:41.120Z,15.11
2022-10-05T08:25:41.122Z,15.13
2022-10-05T08:26:41.089Z,15.16
2022-10-05T08:27:41.071Z,15.17
2022-10-05T08:28:41.173Z,15.19
2022-10-05T08:29:41.045Z,15.21
2022-10-05T08:30:41.048Z,15.25
2022-10-05T08:31:41.094Z,15.25
2022-10-05T08:32:41.021Z,15.27
2022-10-05T08:33:40.988Z,15.29
2022-10-05T08:34:40.976Z,15.31
2022-10-05T08:35:41.038Z,15.32
2022-10-05T08:36:40.958Z,15.36
2022-10-05T08:37:40.946Z,15.36
2022-10-05T08:38:40.957Z,15.38
2022-10-05T08:39:40.918Z,15.39
2022-10-05T08:40:40.927Z,15.39
2022-10-05T08:41:40.889Z,15.41
2022-10-05T08:42:40.886Z,15.43
2022-10-05T08:43:40.870Z,15.46
2022-10-05T08:44:40.882Z,15.49
2022-10-05T08:45:40.857Z,15.50
2022-10-05T08:46:40.887Z,15.51
2022-10-05T08:47:40.813Z,15.54
2022-10-05T08:48:40.805Z,15.54
2022-10-05T08:49:40.796Z,15.56
2022-10-05T08:50:40.796Z,15.54
2022-10-05T08:51:40.767Z,15.54
2022-10-05T08:52:40.813Z,15.59
2022-10-05T08:53:40.755Z,15.60
2022-10-05T08:54:40.735Z,15.60
2022-10-05T08:55:40.765Z,15.62
2022-10-05T08:56:40.725Z,15.65
2022-10-05T08:57:40.684Z,15.67
2022-10-05T08:58:40.696Z,15.67
2022-10-05T08:59:40.661Z,15.67
2022-10-05T09:00:40.673Z,15.67
2022-10-05T09:01:40.698Z,15.69
2022-10-05T09:02:40.698Z,15.72
2022-10-05T09:03:40.613Z,15.72
2022-10-05T09:04:40.603Z,15.72
2022-10-05T09:05:40.594Z,15.74
2022-10-05T09:06:40.611Z,15.76
2022-10-05T09:07:40.574Z,15.78
2022-10-05T09:08:40.591Z,15.80
2022-10-05T09:09:40.533Z,15.80
2022-10-05T09:10:40.570Z,15.84
2022-10-05T09:11:40.511Z,15.83
2022-10-05T09:12:40.505Z,15.83
2022-10-05T09:13:40.482Z,15.83
2022-10-05T09:14:40.472Z,15.83
2022-10-05T09:15:40.506Z,15.84
2022-10-05T09:16:40.441Z,15.87
2022-10-05T09:17:40.432Z,15.90
2022-10-05T09:18:40.413Z,15.93
2022-10-05T09:19:40.412Z,15.94
2022-10-05T09:20:40.410Z,15.97
2022-10-05T09:21:40.381Z,15.97
2022-10-05T09:22:40.371Z,16.00
2022-10-05T09:23:40.372Z,16.02
2022-10-05T09:24:42.057Z,16.07
2022-10-05T09:25:40.348Z,16.09
2022-10-05T09:26:40.311Z,16.12
2022-10-05T09:27:40.349Z,16.11
2022-10-05T09:28:40.337Z,16.12
2022-10-05T09:29:40.277Z,16.15
2022-10-05T09:30:40.307Z,16.20
2022-10-05T09:31:40.295Z,16.20
2022-10-05T09:32:40.269Z,16.23
2022-10-05T09:33:40.238Z,16.25
2022-10-05T09:34:40.221Z,16.27
2022-10-05T09:35:40.212Z,16.30
2022-10-05T09:36:40.199Z,16.31
2022-10-05T09:37:40.190Z,16.33
2022-10-05T09:38:40.196Z,16.39
2022-10-05T09:39:40.147Z,16.42
2022-10-05T09:40:40.149Z,16.46
2022-10-05T09:41:40.128Z,16.53
2022-10-05T09:42:40.107Z,16.57
2022-10-05T09:43:40.116Z,16.58
2022-10-05T09:44:40.119Z,16.63
2022-10-05T09:45:40.108Z,16.68
2022-10-05T09:46:40.146Z,16.71
2022-10-05T09:47:40.087Z,16.73
2022-10-05T09:48:40.025Z,16.75
2022-10-05T09:49:40.007Z,16.78
2022-10-05T09:50:40.008Z,16.83
2022-10-05T09:51:40.005Z,16.89
2022-10-05T09:52:39.997Z,16.91
2022-10-05T09:53:39.956Z,16.97
2022-10-05T09:54:39.995Z,16.98
2022-10-05T09:55:39.979Z,16.97
2022-10-05T09:56:39.927Z,16.98
2022-10-05T09:57:39.906Z,16.96
2022-10-05T09:58:39.947Z,16.97
2022-10-05T09:59:39.875Z,16.97
2022-10-05T10:00:39.885Z,16.98
2022-10-05T10:01:39.909Z,17.01
2022-10-05T10:02:39.939Z,17.01
2022-10-05T10:03:39.846Z,17.00
2022-10-05T10:04:39.827Z,17.03
2022-10-05T10:05:39.846Z,17.04
2022-10-05T10:06:39.896Z,17.01
2022-10-05T10:07:39.884Z,17.01
2022-10-05T10:08:39.856Z,17.03
2022-10-05T10:09:39.866Z,17.03
2022-10-05T10:10:39.773Z,17.06
2022-10-05T10:11:39.716Z,17.11
2022-10-05T10:12:39.706Z,17.15
2022-10-05T10:13:39.688Z,17.18
2022-10-05T10:14:39.674Z,17.16
2022-10-05T10:15:39.738Z,17.21
2022-10-05T10:16:39.656Z,17.25
2022-10-05T10:17:39.635Z,17.26
2022-10-05T10:18:39.654Z,17.26
2022-10-05T10:19:39.622Z,17.31
2022-10-05T10:20:39.634Z,17.33
2022-10-05T10:21:39.585Z,17.34
2022-10-05T10:22:42.941Z,17.40
2022-10-05T10:23:39.568Z,17.44
2022-10-05T10:24:39.585Z,17.44
2022-10-05T10:25:39.545Z,17.38
2022-10-05T10:26:39.572Z,17.36
2022-10-05T10:27:39.533Z,17.26
2022-10-05T10:28:39.534Z,17.31
2022-10-05T10:29:39.504Z,17.33
2022-10-05T10:30:39.494Z,17.31
2022-10-05T10:31:39.452Z,17.34
2022-10-05T10:32:39.432Z,17.34
2022-10-05T10:33:39.424Z,17.36
2022-10-05T10:34:39.443Z,17.37
2022-10-05T10:35:39.412Z,17.41
2022-10-05T10:36:39.400Z,17.43
2022-10-05T10:37:39.373Z,17.44
2022-10-05T10:38:39.363Z,17.43
2022-10-05T10:39:39.362Z,17.37
2022-10-05T10:40:39.345Z,17.33
2022-10-05T10:41:39.357Z,17.37
2022-10-05T10:42:39.331Z,17.37
2022-10-05T10:43:39.337Z,17.36
2022-10-05T10:44:39.291Z,17.34
2022-10-05T10:45:39.282Z,17.34
2022-10-05T10:46:39.368Z,17.36
2022-10-05T10:47:39.244Z,17.38
2022-10-05T10:48:39.240Z,17.37
2022-10-05T10:49:39.230Z,17.33
2022-10-05T10:50:40.053Z,17.34
2022-10-05T10:51:39.194Z,17.34
2022-10-05T10:52:39.234Z,17.33
2022-10-05T10:53:39.202Z,17.33
2022-10-05T10:54:39.159Z,17.34
2022-10-05T10:55:39.150Z,17.36
2022-10-05T10:56:39.129Z,17.37
2022-10-05T10:57:39.120Z,17.33
2022-10-05T10:58:39.109Z,17.33
2022-10-05T10:59:39.082Z,17.34
2022-10-05T11:00:39.098Z,17.38
2022-10-05T11:01:39.108Z,17.40
2022-10-05T11:02:39.130Z,17.43
2022-10-05T11:03:39.031Z,17.43
2022-10-05T11:04:39.029Z,17.40
2022-10-05T11:05:39.018Z,17.40
2022-10-05T11:06:38.998Z,17.40
2022-10-05T11:07:39.012Z,17.41
2022-10-05T11:08:38.978Z,17.49
2022-10-05T11:09:38.969Z,17.48
2022-10-05T11:10:38.990Z,17.49
2022-10-05T11:11:38.934Z,17.52
2022-10-05T11:12:38.948Z,17.48
2022-10-05T11:13:38.919Z,17.46
2022-10-05T11:14:38.906Z,17.52
2022-10-05T11:15:38.928Z,17.58
2022-10-05T11:16:38.893Z,17.62
2022-10-05T11:17:38.859Z,17.62
2022-10-05T11:18:38.849Z,17.63
2022-10-05T11:19:40.749Z,17.63
2022-10-05T11:20:39.830Z,17.59
2022-10-05T11:21:38.812Z,17.59
2022-10-05T11:22:38.837Z,17.59
2022-10-05T11:23:39.190Z,17.59
2022-10-05T11:24:38.810Z,17.54
2022-10-05T11:25:38.766Z,17.54
2022-10-05T11:26:38.780Z,17.55
2022-10-05T11:27:38.727Z,17.56
2022-10-05T11:28:38.807Z,17.63
2022-10-05T11:29:38.732Z,17.70
2022-10-05T11:30:38.748Z,17.79
2022-10-05T11:31:38.727Z,17.86
2022-10-05T11:32:38.696Z,17.93
2022-10-05T11:33:38.664Z,18.02
2022-10-05T11:34:38.647Z,18.12
2022-10-05T11:35:38.666Z,18.33
2022-10-05T11:36:38.613Z,18.52
2022-10-05T11:37:38.596Z,18.82
2022-10-05T11:38:38.595Z,19.07
2022-10-05T11:39:38.567Z,19.31
2022-10-05T11:40:38.586Z,19.48
2022-10-05T11:41:38.545Z,19.55
2022-10-05T11:42:38.535Z,19.55
2022-10-05T11:43:38.522Z,19.62
2022-10-05T11:44:38.523Z,19.80
2022-10-05T11:45:38.524Z,19.87
2022-10-05T11:46:38.554Z,19.91
2022-10-05T11:47:38.474Z,20.01
2022-10-05T11:48:38.454Z,20.08
2022-10-05T11:49:38.447Z,20.24
2022-10-05T11:50:38.458Z,20.33
2022-10-05T11:51:38.413Z,20.43
2022-10-05T11:52:38.423Z,20.58
2022-10-05T11:53:38.412Z,20.73
2022-10-05T11:54:58.556Z,20.88
2022-10-05T11:55:39.412Z,20.80
2022-10-05T11:56:38.364Z,20.82
2022-10-05T11:57:38.333Z,20.87
2022-10-05T11:58:38.333Z,20.94
2022-10-05T11:59:38.324Z,21.19
2022-10-05T12:00:38.313Z,21.42
2022-10-05T12:01:38.290Z,21.59
2022-10-05T12:02:41.207Z,21.54
2022-10-05T12:03:39.313Z,21.52
2022-10-05T12:04:38.262Z,21.38
2022-10-05T12:05:38.264Z,21.29
2022-10-05T12:06:38.245Z,21.19
2022-10-05T12:07:38.215Z,21.19
2022-10-05T12:08:38.204Z,21.24
2022-10-05T12:09:38.182Z,21.28
2022-10-05T12:10:38.202Z,21.35
2022-10-05T12:11:38.162Z,21.46
2022-10-05T12:12:38.157Z,21.21
2022-10-05T12:13:38.135Z,21.19
2022-10-05T12:14:38.133Z,21.19
2022-10-05T12:15:38.142Z,21.19
2022-10-05T12:16:38.121Z,21.34
2022-10-05T12:17:38.094Z,21.38
2022-10-05T12:18:38.100Z,21.46
2022-10-05T12:19:38.062Z,21.54
2022-10-05T12:20:38.073Z,21.74
2022-10-05T12:21:38.050Z,21.86
2022-10-05T12:22:38.012Z,21.92
2022-10-05T12:23:38.058Z,21.96
2022-10-05T12:24:37.994Z,21.92
2022-10-05T12:25:37.991Z,21.94
2022-10-05T12:26:37.982Z,21.98
2022-10-05T12:27:37.991Z,22.00
2022-10-05T12:28:37.952Z,22.09
2022-10-05T12:29:37.930Z,22.03
2022-10-05T12:30:37.952Z,21.94
2022-10-05T12:31:37.970Z,21.74
2022-10-05T12:32:37.890Z,21.68
2022-10-05T12:33:37.873Z,21.75
2022-10-05T12:34:37.863Z,21.84
2022-10-05T12:35:48.361Z,21.90
2022-10-05T12:36:59.702Z,21.96
2022-10-05T12:37:38.828Z,21.91
2022-10-05T12:38:37.842Z,21.77
2022-10-05T12:39:37.824Z,21.82
2022-10-05T12:40:37.830Z,21.74
2022-10-05T12:41:37.781Z,21.59
2022-10-05T12:42:41.613Z,21.54
2022-10-05T12:43:37.758Z,21.53
2022-10-05T12:44:37.731Z,21.54
2022-10-05T12:45:37.861Z,21.64
2022-10-05T12:46:37.714Z,21.74
2022-10-05T12:47:37.703Z,21.74
2022-10-05T12:48:37.680Z,21.72
2022-10-05T12:49:37.670Z,21.67
2022-10-05T12:50:37.691Z,21.68
2022-10-05T12:51:37.679Z,21.79
2022-10-05T12:52:37.632Z,21.82